Time;durP1;ratioP1;P1;durP2;ratioP2;P2;SDS_P1;SDS_P2;PMS_P1;PMS_P2;Temp;Humidity;BMP_temperature;BMP_pressure;BME280_temperature;BME280_humidity;BME280_pressure;Samples;Min_cycle;Max_cycle;Signal;HPM_P1;HPM_P2
2024/01/18 00:02:10;;;;;;;8.77;3.53;;;12.40;99.90;;;;;;5099759;28;20036;-54
2024/01/18 00:04:36;;;;;;;9.40;4.53;;;12.50;99.90;;;;;;5099568;28;20020;-54
2024/01/18 00:07:02;;;;;;;4.47;2.15;;;12.60;99.90;;;;;;5099341;28;20032;-54
2024/01/18 00:09:28;;;;;;;2.05;1.05;;;12.90;99.90;;;;;;5099413;28;20111;-54
2024/01/18 00:11:54;;;;;;;1.67;0.93;;;13.20;99.90;;;;;;5099481;28;20115;-54
2024/01/18 00:14:19;;;;;;;2.47;1.20;;;13.50;99.90;;;;;;5099648;28;20107;-54
2024/01/18 00:16:46;;;;;;;3.30;1.10;;;13.70;99.90;;;;;;5099280;28;20128;-54
2024/01/18 00:19:12;;;;;;;2.08;0.70;;;13.80;99.90;;;;;;5099118;28;20055;-54
2024/01/18 00:21:38;;;;;;;1.77;0.80;;;14.00;99.90;;;;;;5099292;28;20456;-54
2024/01/18 00:24:05;;;;;;;1.55;1.00;;;14.20;99.90;;;;;;5099157;28;20099;-54
2024/01/18 00:26:31;;;;;;;1.85;1.08;;;14.40;99.30;;;;;;5099051;28;20043;-54
2024/01/18 00:28:58;;;;;;;3.30;1.30;;;14.40;99.10;;;;;;5099241;28;20043;-54
2024/01/18 00:31:24;;;;;;;4.18;1.27;;;14.30;99.10;;;;;;5099048;28;20409;-55
2024/01/18 00:33:50;;;;;;;2.38;0.93;;;14.60;98.60;;;;;;5099088;28;20036;-54
2024/01/18 00:36:15;;;;;;;3.72;1.45;;;14.60;98.20;;;;;;5099007;28;20023;-55
2024/01/18 00:38:41;;;;;;;2.42;1.00;;;14.60;98.10;;;;;;5099114;28;20370;-55
2024/01/18 00:41:07;;;;;;;10.82;5.97;;;14.50;98.10;;;;;;5098856;28;20024;-55
2024/01/18 00:43:33;;;;;;;65.25;33.33;;;14.60;97.80;;;;;;5098824;28;20028;-55
2024/01/18 00:46:03;;;;;;;118.20;59.13;;;14.20;97.70;;;;;;5098763;28;20119;-54
2024/01/18 00:48:29;;;;;;;121.13;59.63;;;13.70;97.80;;;;;;5098742;28;20036;-55
2024/01/18 00:50:55;;;;;;;124.10;63.35;;;13.20;98.50;;;;;;5098660;28;20081;-55
2024/01/18 00:53:21;;;;;;;170.45;75.63;;;12.70;99.30;;;;;;5098735;28;20500;-55
2024/01/18 00:55:47;;;;;;;182.45;78.15;;;12.30;99.90;;;;;;5098642;28;20099;-54
2024/01/18 00:58:13;;;;;;;160.80;71.70;;;12.00;99.90;;;;;;5098894;28;20028;-54
2024/01/18 01:00:39;;;;;;;285.55;109.38;;;11.80;99.90;;;;;;5098308;28;20036;-54
2024/01/18 01:03:05;;;;;;;140.15;62.33;;;11.50;99.90;;;;;;5098313;28;20077;-54
2024/01/18 01:05:31;;;;;;;106.63;49.97;;;11.40;99.90;;;;;;5098438;28;20024;-54
2024/01/18 01:07:57;;;;;;;75.35;38.78;;;11.50;99.90;;;;;;5098105;28;20071;-54
2024/01/18 01:10:23;;;;;;;58.83;28.83;;;11.60;99.90;;;;;;5098299;28;20024;-54
2024/01/18 01:12:48;;;;;;;43.85;20.92;;;11.60;99.90;;;;;;5098513;28;20363;-54
2024/01/18 01:15:14;;;;;;;43.88;21.38;;;11.90;99.90;;;;;;5098223;28;20046;-54
2024/01/18 01:17:40;;;;;;;30.25;14.27;;;12.10;99.90;;;;;;5097909;28;20089;-54
2024/01/18 01:20:12;;;;;;;7.50;2.28;;;12.30;99.90;;;;;;5098094;28;20039;-54
2024/01/18 01:22:38;;;;;;;4.03;1.60;;;13.40;99.90;;;;;;5098131;28;20103;-54
2024/01/18 01:25:06;;;;;;;3.92;1.40;;;14.20;99.90;;;;;;5097940;28;20048;-55
2024/01/18 01:27:31;;;;;;;3.60;1.20;;;14.40;99.20;;;;;;5098236;28;20450;-54
2024/01/18 01:29:57;;;;;;;3.03;1.10;;;14.70;98.60;;;;;;5097891;28;20051;-54
2024/01/18 01:32:23;;;;;;;2.58;1.15;;;14.90;97.60;;;;;;5097815;28;20469;-55
2024/01/18 01:34:49;;;;;;;5.47;1.65;;;15.20;96.90;;;;;;5097782;28;20035;-55
2024/01/18 01:37:15;;;;;;;4.53;1.50;;;15.40;96.00;;;;;;5097816;28;20554;-55
2024/01/18 01:39:41;;;;;;;5.00;1.30;;;15.30;95.90;;;;;;5097750;28;20377;-55
2024/01/18 01:42:06;;;;;;;7.25;1.30;;;15.60;95.00;;;;;;5097709;28;20028;-54
2024/01/18 01:44:32;;;;;;;8.20;1.40;;;15.80;94.30;;;;;;5097569;28;20115;-55
2024/01/18 01:46:58;;;;;;;6.50;1.63;;;15.70;94.20;;;;;;5097629;28;20032;-55
2024/01/18 01:49:25;;;;;;;5.95;1.45;;;15.70;93.70;;;;;;5097625;28;20039;-55
2024/01/18 01:51:52;;;;;;;5.70;1.33;;;16.00;92.30;;;;;;5097564;28;20031;-55
2024/01/18 01:54:20;;;;;;;8.02;1.52;;;16.00;92.20;;;;;;5097399;28;20028;-55
2024/01/18 01:56:49;;;;;;;4.00;1.23;;;15.90;92.20;;;;;;5097462;28;20016;-55
2024/01/18 01:59:16;;;;;;;3.30;1.20;;;15.80;92.40;;;;;;5097222;28;20085;-55
2024/01/18 02:01:44;;;;;;;5.57;1.67;;;15.60;92.40;;;;;;5097301;28;20103;-54
2024/01/18 02:04:11;;;;;;;2.92;1.00;;;15.60;91.80;;;;;;5097218;28;20028;-55
2024/01/18 02:06:39;;;;;;;3.95;1.52;;;15.60;91.80;;;;;;5097040;28;20020;-55
2024/01/18 02:09:06;;;;;;;5.70;1.58;;;15.60;91.70;;;;;;5097112;28;20020;-54
2024/01/18 02:11:32;;;;;;;6.03;1.50;;;15.60;91.70;;;;;;5097119;28;20056;-55
2024/01/18 02:13:58;;;;;;;7.90;1.50;;;15.60;91.50;;;;;;5097047;28;20390;-55
2024/01/18 02:16:24;;;;;;;6.18;1.35;;;15.60;91.50;;;;;;5096488;28;20031;-55
2024/01/18 02:18:51;;;;;;;6.57;1.65;;;15.60;91.40;;;;;;5096752;28;20102;-55
2024/01/18 02:21:17;;;;;;;6.35;1.80;;;15.60;91.10;;;;;;5096906;28;20035;-55
2024/01/18 02:23:46;;;;;;;7.80;2.33;;;15.80;90.70;;;;;;5097137;28;20020;-55
2024/01/18 02:26:12;;;;;;;4.65;1.60;;;15.70;91.30;;;;;;5096739;28;20099;-55
2024/01/18 02:28:51;;;;;;;5.50;1.70;;;15.80;90.90;;;;;;5096819;28;20062;-55
2024/01/18 02:31:17;;;;;;;3.42;1.50;;;15.80;91.40;;;;;;5096749;28;20036;-55
2024/01/18 02:33:43;;;;;;;4.70;1.80;;;15.60;90.90;;;;;;5096655;28;20089;-55
2024/01/18 02:36:08;;;;;;;8.27;1.70;;;15.70;90.90;;;;;;5096709;28;20454;-55
2024/01/18 02:38:34;;;;;;;8.52;1.95;;;15.60;90.90;;;;;;5096603;28;20055;-55
2024/01/18 02:41:00;;;;;;;12.93;2.25;;;15.70;90.60;;;;;;5096526;28;20085;-55
2024/01/18 02:43:26;;;;;;;4.88;1.40;;;15.70;90.30;;;;;;5096572;28;20077;-55
2024/01/18 02:45:52;;;;;;;9.95;1.52;;;15.70;90.40;;;;;;5096422;28;20020;-55
2024/01/18 02:48:18;;;;;;;6.90;1.55;;;15.70;90.20;;;;;;5094756;28;20027;-55
2024/01/18 02:50:43;;;;;;;8.75;2.15;;;15.70;90.30;;;;;;5096133;28;20028;-55
2024/01/18 02:53:09;;;;;;;5.75;1.17;;;15.70;89.40;;;;;;5096419;28;20442;-55
2024/01/18 02:55:35;;;;;;;8.65;1.63;;;15.80;88.80;;;;;;5096283;28;20051;-55
2024/01/18 02:58:01;;;;;;;7.10;1.73;;;15.90;89.50;;;;;;5096236;28;20031;-55
2024/01/18 03:00:27;;;;;;;5.03;1.30;;;15.70;89.10;;;;;;5095767;28;20069;-55
2024/01/18 03:02:53;;;;;;;9.73;2.05;;;16.00;86.10;;;;;;5096220;28;20424;-55
2024/01/18 03:05:18;;;;;;;10.07;1.90;;;15.90;87.50;;;;;;5096124;28;20043;-55
2024/01/18 03:07:44;;;;;;;4.85;1.23;;;15.70;87.70;;;;;;5095935;28;20424;-55
2024/01/18 03:10:10;;;;;;;6.88;1.50;;;15.70;86.90;;;;;;5095926;28;20094;-55
2024/01/18 03:12:37;;;;;;;6.47;1.73;;;15.60;87.00;;;;;;5096047;28;20035;-55
2024/01/18 03:15:10;;;;;;;6.60;1.15;;;15.70;86.50;;;;;;5095883;28;20035;-55
2024/01/18 03:17:35;;;;;;;5.07;1.65;;;15.70;85.40;;;;;;5095772;28;20020;-55
2024/01/18 03:20:06;;;;;;;7.78;1.70;;;15.70;86.00;;;;;;5095849;28;20492;-55
2024/01/18 03:22:40;;;;;;;3.67;1.15;;;15.50;86.90;;;;;;5095937;28;20405;-55
2024/01/18 03:25:06;;;;;;;7.40;1.60;;;15.50;86.30;;;;;;5096034;28;20059;-55
2024/01/18 03:27:32;;;;;;;3.30;1.33;;;15.50;86.30;;;;;;5094665;28;20089;-55
2024/01/18 03:29:58;;;;;;;4.45;1.48;;;15.50;85.30;;;;;;5095801;28;20024;-55
2024/01/18 03:32:24;;;;;;;6.03;0.93;;;15.60;84.50;;;;;;5095747;28;20035;-55
2024/01/18 03:34:50;;;;;;;4.38;1.35;;;15.70;84.20;;;;;;5095898;28;20455;-55
2024/01/18 03:37:16;;;;;;;4.78;1.40;;;15.90;82.50;;;;;;5095704;28;20036;-55
2024/01/18 03:39:42;;;;;;;5.03;1.13;;;15.90;81.90;;;;;;5095846;28;20115;-55
2024/01/18 03:42:07;;;;;;;5.97;1.23;;;15.90;81.50;;;;;;5095564;28;20066;-55
2024/01/18 03:44:34;;;;;;;7.68;1.75;;;15.90;81.50;;;;;;5095545;28;20020;-55
2024/01/18 03:47:00;;;;;;;7.72;1.08;;;15.90;81.90;;;;;;5095847;28;20024;-55
2024/01/18 03:49:26;;;;;;;8.20;1.42;;;15.80;80.70;;;;;;5095566;28;20112;-55
2024/01/18 03:51:52;;;;;;;4.85;0.98;;;16.00;79.50;;;;;;5096045;28;20031;-55
2024/01/18 03:54:21;;;;;;;3.63;1.00;;;16.10;79.40;;;;;;5095597;28;20032;-55
2024/01/18 03:56:47;;;;;;;4.32;1.55;;;16.00;79.40;;;;;;5095407;28;20024;-55
2024/01/18 03:59:16;;;;;;;4.30;1.00;;;16.10;78.70;;;;;;5095494;28;20070;-55
2024/01/18 04:01:43;;;;;;;3.70;1.10;;;16.00;78.60;;;;;;5095417;28;20032;-55
2024/01/18 04:04:09;;;;;;;4.35;0.93;;;16.00;78.80;;;;;;5095553;28;20024;-55
2024/01/18 04:06:34;;;;;;;3.08;0.95;;;15.90;79.10;;;;;;5095319;28;20020;-55
2024/01/18 04:09:00;;;;;;;4.60;1.70;;;16.00;78.40;;;;;;5095547;28;20043;-55
2024/01/18 04:11:26;;;;;;;5.15;0.95;;;16.00;77.90;;;;;;5095361;28;20082;-55
2024/01/18 04:13:52;;;;;;;3.60;1.00;;;15.80;78.90;;;;;;5095761;28;20032;-55
2024/01/18 04:16:18;;;;;;;3.17;1.08;;;15.60;79.40;;;;;;5095346;28;20145;-55
2024/01/18 04:18:44;;;;;;;5.78;1.13;;;15.50;79.50;;;;;;5095202;28;20032;-55
2024/01/18 04:21:10;;;;;;;2.83;0.75;;;15.60;78.30;;;;;;5095179;28;20097;-55
2024/01/18 04:23:36;;;;;;;2.78;0.80;;;15.80;77.90;;;;;;5095268;28;20058;-55
2024/01/18 04:26:03;;;;;;;5.88;1.20;;;15.70;77.50;;;;;;5095191;28;20362;-55
2024/01/18 04:28:28;;;;;;;3.47;0.80;;;15.70;78.00;;;;;;5095186;28;20089;-55
2024/01/18 04:30:54;;;;;;;3.03;0.90;;;15.60;77.60;;;;;;5095170;28;20024;-55
2024/01/18 04:33:20;;;;;;;2.90;0.70;;;15.70;77.10;;;;;;5095286;28;20028;-55
2024/01/18 04:35:46;;;;;;;2.67;0.88;;;15.60;77.60;;;;;;5095181;28;20032;-55
2024/01/18 04:38:13;;;;;;;2.58;1.20;;;15.50;78.10;;;;;;5095806;28;20037;-55
2024/01/18 04:40:39;;;;;;;1.98;1.00;;;15.60;77.40;;;;;;5097663;28;20081;-55
2024/01/18 04:43:05;;;;;;;5.20;1.40;;;15.60;77.70;;;;;;5098814;28;20028;-55
2024/01/18 04:45:30;;;;;;;4.20;2.00;;;15.70;77.20;;;;;;5098789;28;20024;-55
2024/01/18 04:47:57;;;;;;;3.28;1.10;;;15.60;77.60;;;;;;5098783;28;20546;-55
2024/01/18 04:50:26;;;;;;;1.25;0.65;;;15.70;76.90;;;;;;5098507;28;20064;-55
2024/01/18 04:52:52;;;;;;;2.00;0.60;;;15.60;76.90;;;;;;5098658;28;20019;-55
2024/01/18 04:55:18;;;;;;;1.92;0.63;;;15.70;76.70;;;;;;5098538;28;20021;-55
2024/01/18 04:57:45;;;;;;;3.28;1.73;;;15.80;76.60;;;;;;5098428;28;20071;-55
2024/01/18 05:00:11;;;;;;;4.40;1.02;;;16.00;75.30;;;;;;5098447;28;20039;-55
2024/01/18 05:02:38;;;;;;;5.25;2.28;;;16.00;74.70;;;;;;5098604;28;20030;-55
2024/01/18 05:05:06;;;;;;;5.05;2.10;;;16.00;74.40;;;;;;5098563;28;20038;-55
2024/01/18 05:07:32;;;;;;;5.57;1.80;;;16.10;74.20;;;;;;5098047;28;20093;-55
2024/01/18 05:09:58;;;;;;;4.85;1.83;;;16.00;74.60;;;;;;5098300;28;20083;-55
2024/01/18 05:12:24;;;;;;;5.88;3.00;;;15.90;75.30;;;;;;5098284;28;20047;-55
2024/01/18 05:14:49;;;;;;;3.50;1.42;;;16.00;75.20;;;;;;5098334;28;20028;-55
2024/01/18 05:17:16;;;;;;;3.85;1.58;;;16.00;75.10;;;;;;5098073;28;20108;-55
2024/01/18 05:19:43;;;;;;;5.65;1.65;;;16.00;75.70;;;;;;5097979;28;20077;-55
2024/01/18 05:22:09;;;;;;;4.25;1.08;;;16.00;74.90;;;;;;5097979;28;20043;-55
2024/01/18 05:24:35;;;;;;;3.92;1.42;;;16.00;74.80;;;;;;5097974;28;20027;-55
2024/01/18 05:27:01;;;;;;;4.13;1.33;;;15.90;75.70;;;;;;5097925;28;20021;-55
2024/01/18 05:29:27;;;;;;;4.72;1.70;;;15.80;75.60;;;;;;5097948;28;20020;-55
2024/01/18 05:31:52;;;;;;;2.92;1.13;;;15.80;76.80;;;;;;5097982;28;20073;-55
2024/01/18 05:34:19;;;;;;;5.85;1.50;;;15.60;77.00;;;;;;5097804;28;20028;-55
2024/01/18 05:36:45;;;;;;;5.25;1.88;;;15.50;76.60;;;;;;5097677;28;20024;-55
2024/01/18 05:39:11;;;;;;;5.07;1.88;;;15.70;76.40;;;;;;5097785;28;20032;-55
2024/01/18 05:41:37;;;;;;;8.95;1.40;;;15.70;76.00;;;;;;5097608;28;20039;-55
2024/01/18 05:44:03;;;;;;;4.85;1.60;;;15.70;75.30;;;;;;5097680;28;20032;-55
2024/01/18 05:46:29;;;;;;;7.25;1.70;;;15.70;75.20;;;;;;5097682;28;20020;-55
2024/01/18 05:48:54;;;;;;;11.70;2.35;;;15.70;75.70;;;;;;5097513;28;20508;-55
2024/01/18 05:51:20;;;;;;;7.75;2.08;;;15.50;76.40;;;;;;5096312;28;20481;-55
2024/01/18 05:53:46;;;;;;;7.38;2.63;;;15.40;76.30;;;;;;5097393;28;20030;-55
2024/01/18 05:56:12;;;;;;;7.60;2.75;;;15.40;76.50;;;;;;5097364;28;20111;-55
2024/01/18 05:58:37;;;;;;;10.05;2.80;;;15.40;76.60;;;;;;5097324;28;20020;-55
2024/01/18 06:01:03;;;;;;;11.57;4.63;;;15.30;77.00;;;;;;5097245;28;20060;-55
2024/01/18 06:03:29;;;;;;;11.18;3.10;;;15.30;77.30;;;;;;5097302;28;20032;-55
2024/01/18 06:05:58;;;;;;;12.48;3.63;;;15.20;77.70;;;;;;5097168;28;20024;-55
2024/01/18 06:08:24;;;;;;;7.20;3.63;;;15.10;78.00;;;;;;5096745;28;20035;-55
2024/01/18 06:10:51;;;;;;;9.88;4.80;;;15.00;78.30;;;;;;5097421;28;20086;-55
2024/01/18 06:13:17;;;;;;;7.68;2.53;;;14.90;78.70;;;;;;5097026;28;20016;-55
2024/01/18 06:15:43;;;;;;;12.90;3.15;;;15.00;77.60;;;;;;5097050;28;20492;-55
2024/01/18 06:18:09;;;;;;;11.35;3.85;;;15.10;77.30;;;;;;5096688;28;20039;-55
2024/01/18 06:20:35;;;;;;;15.18;4.03;;;15.10;77.80;;;;;;5095289;28;20044;-55
2024/01/18 06:23:01;;;;;;;12.18;2.95;;;15.00;78.10;;;;;;5096203;28;20108;-55
2024/01/18 06:25:27;;;;;;;11.43;3.40;;;15.00;78.30;;;;;;5095870;28;20028;-55
2024/01/18 06:27:53;;;;;;;10.70;2.83;;;14.90;78.10;;;;;;5095625;28;20024;-55
2024/01/18 06:30:19;;;;;;;17.08;4.10;;;14.90;77.80;;;;;;5096557;28;20036;-55
2024/01/18 06:32:45;;;;;;;7.25;2.65;;;15.00;77.80;;;;;;5096795;28;20451;-55
2024/01/18 06:35:11;;;;;;;11.02;3.67;;;15.20;76.00;;;;;;5096386;28;20054;-55
2024/01/18 06:37:38;;;;;;;12.93;3.70;;;15.30;76.10;;;;;;5096582;28;20077;-55
2024/01/18 06:40:04;;;;;;;16.25;4.43;;;15.30;76.00;;;;;;5095952;28;20063;-55
2024/01/18 06:42:31;;;;;;;13.20;3.38;;;15.20;76.10;;;;;;5096120;28;20036;-55
2024/01/18 06:44:57;;;;;;;13.82;3.72;;;15.30;74.00;;;;;;5095655;28;20109;-55
2024/01/18 06:47:23;;;;;;;14.95;4.18;;;15.40;73.90;;;;;;5096030;28;20023;-55
2024/01/18 06:49:48;;;;;;;18.45;5.25;;;15.40;74.10;;;;;;5095709;28;20362;-55
2024/01/18 06:52:14;;;;;;;14.02;3.78;;;15.40;74.50;;;;;;5095146;28;20064;-55
2024/01/18 06:54:43;;;;;;;15.40;3.50;;;15.30;73.80;;;;;;5096189;28;20119;-55
2024/01/18 06:57:09;;;;;;;18.00;4.93;;;15.40;72.30;;;;;;5096089;28;20061;-55
2024/01/18 06:59:36;;;;;;;18.30;4.03;;;15.40;73.30;;;;;;5096519;28;20023;-55
2024/01/18 07:02:02;;;;;;;16.33;5.25;;;15.40;72.10;;;;;;5094969;28;20016;-55
2024/01/18 07:04:28;;;;;;;20.80;4.75;;;15.40;72.60;;;;;;5095951;28;20040;-55
2024/01/18 07:06:54;;;;;;;17.80;6.18;;;15.30;72.10;;;;;;5096208;28;20035;-55
2024/01/18 07:09:20;;;;;;;21.50;6.18;;;15.30;72.60;;;;;;5096504;28;20080;-55
2024/01/18 07:11:46;;;;;;;25.35;7.15;;;15.30;72.20;;;;;;5096101;28;20120;-55
2024/01/18 07:14:12;;;;;;;23.85;6.35;;;15.30;72.60;;;;;;5095253;28;20043;-55
2024/01/18 07:16:37;;;;;;;22.60;6.68;;;15.20;72.00;;;;;;5095331;28;20470;-55
2024/01/18 07:19:04;;;;;;;25.42;8.55;;;15.40;71.40;;;;;;5095421;28;20043;-55
2024/01/18 07:21:30;;;;;;;32.00;8.82;;;15.40;71.70;;;;;;5095590;28;20020;-55
2024/01/18 07:23:56;;;;;;;26.17;5.72;;;15.40;71.60;;;;;;5095875;28;20027;-55
2024/01/18 07:26:21;;;;;;;30.88;7.32;;;15.40;70.40;;;;;;5095329;28;20028;-55
2024/01/18 07:28:48;;;;;;;45.30;9.32;;;15.40;71.00;;;;;;5095818;28;20049;-55
2024/01/18 07:31:14;;;;;;;25.98;8.65;;;15.40;71.40;;;;;;5095643;28;20035;-55
2024/01/18 07:33:40;;;;;;;44.13;19.92;;;15.30;71.80;;;;;;5095599;28;20086;-55
2024/01/18 07:36:06;;;;;;;61.83;28.02;;;15.30;73.50;;;;;;5095345;28;20028;-55
2024/01/18 07:38:32;;;;;;;67.95;31.80;;;15.10;75.70;;;;;;5095917;28;20074;-55
2024/01/18 07:40:58;;;;;;;170.52;56.97;;;14.90;77.90;;;;;;5095915;28;20060;-55
2024/01/18 07:43:24;;;;;;;182.23;63.75;;;14.70;78.90;;;;;;5095880;28;20028;-55
2024/01/18 07:45:50;;;;;;;270.38;86.32;;;14.60;79.80;;;;;;5095975;28;20024;-55
2024/01/18 07:48:15;;;;;;;339.75;124.85;;;14.50;80.00;;;;;;5094556;28;20028;-55
2024/01/18 07:50:41;;;;;;;236.27;73.88;;;14.40;80.30;;;;;;5092596;28;20193;-55
2024/01/18 07:53:07;;;;;;;167.05;60.03;;;14.30;82.10;;;;;;5096094;28;20055;-55
2024/01/18 07:55:33;;;;;;;194.52;84.88;;;14.30;82.50;;;;;;5095490;28;20032;-55
2024/01/18 07:57:59;;;;;;;148.18;63.30;;;14.20;82.90;;;;;;5086984;28;20114;-55
2024/01/18 08:00:25;;;;;;;94.55;39.28;;;14.20;82.40;;;;;;5078158;28;20405;-55
2024/01/18 08:02:51;;;;;;;81.38;37.15;;;14.20;82.70;;;;;;5095809;28;20031;-55
2024/01/18 08:05:17;;;;;;;88.70;40.97;;;14.20;83.90;;;;;;5095144;28;20099;-55
2024/01/18 08:07:43;;;;;;;70.57;34.30;;;14.20;84.60;;;;;;5095127;28;20028;-55
2024/01/18 08:10:09;;;;;;;96.03;37.38;;;14.20;83.20;;;;;;5095451;28;20031;-55
2024/01/18 08:12:35;;;;;;;75.55;33.55;;;14.30;83.80;;;;;;5095233;28;20036;-55
2024/01/18 08:15:01;;;;;;;52.67;21.27;;;14.40;83.00;;;;;;5098664;28;20036;-55
2024/01/18 08:17:27;;;;;;;40.75;14.80;;;14.70;79.10;;;;;;5096204;28;20389;-55
2024/01/18 08:19:54;;;;;;;40.03;8.38;;;14.80;77.60;;;;;;5098699;28;20055;-55
2024/01/18 08:22:20;;;;;;;26.40;7.70;;;15.20;73.90;;;;;;5098857;28;20048;-55
2024/01/18 08:24:47;;;;;;;20.65;6.15;;;15.40;74.70;;;;;;5099088;28;20359;-55
2024/01/18 08:27:13;;;;;;;20.95;6.28;;;15.80;71.40;;;;;;5098568;28;20051;-55
2024/01/18 08:29:39;;;;;;;34.97;9.30;;;16.10;70.30;;;;;;5090686;28;20043;-55
2024/01/18 08:32:05;;;;;;;42.08;9.52;;;16.20;70.00;;;;;;5094020;28;20082;-55
2024/01/18 08:34:31;;;;;;;34.92;9.02;;;16.40;71.50;;;;;;5099211;28;20107;-55
2024/01/18 08:36:57;;;;;;;43.72;10.27;;;16.80;71.40;;;;;;5098252;28;20051;-55
2024/01/18 08:39:23;;;;;;;32.25;11.38;;;17.30;69.50;;;;;;5098017;28;20083;-55
2024/01/18 08:41:49;;;;;;;28.92;12.60;;;17.80;68.40;;;;;;5098102;28;20088;-55
2024/01/18 08:44:14;;;;;;;33.95;17.33;;;17.90;65.90;;;;;;5099236;28;20027;-55
2024/01/18 08:46:40;;;;;;;36.25;9.95;;;18.10;66.40;;;;;;5099057;28;20428;-55
2024/01/18 08:49:08;;;;;;;36.83;9.77;;;18.00;64.20;;;;;;5092380;28;20082;-56
2024/01/18 08:51:33;;;;;;;36.05;9.05;;;18.10;64.50;;;;;;5096081;28;20024;-55
2024/01/18 08:53:59;;;;;;;39.88;9.27;;;18.00;64.40;;;;;;5098855;28;20492;-55
2024/01/18 08:56:25;;;;;;;60.65;10.98;;;18.10;64.70;;;;;;5097515;28;20024;-55
2024/01/18 08:58:51;;;;;;;66.43;11.70;;;18.10;67.20;;;;;;5097177;28;20024;-55
2024/01/18 09:01:16;;;;;;;51.38;11.13;;;18.00;65.00;;;;;;5098058;28;20042;-55
2024/01/18 09:03:42;;;;;;;43.28;13.55;;;18.10;64.30;;;;;;5098271;28;20061;-55
2024/01/18 09:06:08;;;;;;;30.88;6.45;;;18.10;65.10;;;;;;5098047;28;20024;-55
2024/01/18 09:08:34;;;;;;;17.17;4.65;;;18.20;62.40;;;;;;5097897;28;20398;-55
2024/01/18 09:11:00;;;;;;;32.72;6.93;;;18.20;61.20;;;;;;5097904;28;20074;-55
2024/01/18 09:13:26;;;;;;;30.80;7.95;;;18.10;61.70;;;;;;5081268;28;20025;-55
2024/01/18 09:15:53;;;;;;;35.25;6.63;;;18.20;62.00;;;;;;5078663;28;20035;-55
2024/01/18 09:18:19;;;;;;;24.48;6.00;;;18.20;60.50;;;;;;5098011;28;20409;-55
2024/01/18 09:20:45;;;;;;;29.48;6.07;;;18.30;61.60;;;;;;5091176;28;20044;-55
2024/01/18 09:23:12;;;;;;;27.20;6.75;;;18.40;61.40;;;;;;5093179;28;20035;-55
2024/01/18 09:25:39;;;;;;;35.35;5.75;;;18.30;60.20;;;;;;5096020;28;20091;-55
2024/01/18 09:28:07;;;;;;;27.45;5.93;;;18.40;60.80;;;;;;5097716;28;20096;-55
2024/01/18 09:30:34;;;;;;;30.00;6.90;;;18.40;60.40;;;;;;5097685;28;20511;-55
2024/01/18 09:33:01;;;;;;;19.35;5.35;;;18.40;59.70;;;;;;5097912;28;20300;-55
2024/01/18 09:35:27;;;;;;;30.98;6.15;;;18.30;60.70;;;;;;5097808;28;20040;-55
2024/01/18 09:37:53;;;;;;;20.80;4.75;;;18.10;59.70;;;;;;5096937;28;20095;-55
2024/01/18 09:40:19;;;;;;;25.48;6.22;;;18.10;59.90;;;;;;5096146;28;20084;-55
2024/01/18 09:42:46;;;;;;;12.40;3.03;;;18.10;60.10;;;;;;5097269;28;20020;-55
2024/01/18 09:45:14;;;;;;;28.48;6.85;;;18.00;59.70;;;;;;5097056;28;20127;-56
2024/01/18 09:47:44;;;;;;;26.58;7.05;;;18.00;61.60;;;;;;5096891;28;20470;-55
2024/01/18 09:50:10;;;;;;;22.37;5.10;;;17.90;61.40;;;;;;5096974;28;20120;-55
2024/01/18 09:52:37;;;;;;;45.10;7.60;;;17.90;62.00;;;;;;5090267;28;20413;-55
2024/01/18 09:55:04;;;;;;;34.83;5.03;;;17.80;62.50;;;;;;5080759;28;20037;-55
2024/01/18 09:57:33;;;;;;;32.10;5.25;;;17.90;61.90;;;;;;5094638;28;20096;-56
2024/01/18 10:00:03;;;;;;;28.02;4.75;;;18.00;63.50;;;;;;5096123;28;20035;-55
2024/01/18 10:02:36;;;;;;;22.77;4.53;;;18.10;63.00;;;;;;5097094;28;20029;-55
2024/01/18 10:05:02;;;;;;;22.35;6.32;;;18.10;64.20;;;;;;5095034;28;20077;-55
2024/01/18 10:07:28;;;;;;;54.97;13.38;;;18.10;64.40;;;;;;5094647;28;20028;-56
2024/01/18 10:09:54;;;;;;;39.85;15.68;;;18.20;64.40;;;;;;5088092;28;20037;-55
2024/01/18 10:12:20;;;;;;;73.30;22.77;;;18.30;64.20;;;;;;5084948;28;20035;-55
2024/01/18 10:14:46;;;;;;;43.80;17.65;;;18.30;64.30;;;;;;5097433;28;20032;-55
2024/01/18 10:17:22;;;;;;;35.55;11.00;;;18.30;63.70;;;;;;5095929;28;20111;-55
2024/01/18 10:19:57;;;;;;;30.40;8.13;;;18.40;63.20;;;;;;5096348;28;20127;-55
2024/01/18 10:22:23;;;;;;;51.00;14.90;;;18.50;62.80;;;;;;5092401;28;20024;-55
2024/01/18 10:24:50;;;;;;;15.10;3.85;;;18.60;63.50;;;;;;5092475;28;20035;-55
2024/01/18 10:27:19;;;;;;;7.05;2.47;;;18.60;61.00;;;;;;5094550;28;20530;-55
2024/01/18 10:29:44;;;;;;;13.57;2.80;;;18.40;61.40;;;;;;5085373;28;20037;-56
2024/01/18 10:32:10;;;;;;;19.90;3.42;;;18.40;62.00;;;;;;5076441;28;20021;-56
2024/01/18 10:34:37;;;;;;;12.48;3.03;;;18.30;63.30;;;;;;5079595;28;20024;-55
2024/01/18 10:37:06;;;;;;;12.48;2.65;;;18.20;61.90;;;;;;5095967;28;20068;-56
2024/01/18 10:39:42;;;;;;;12.05;3.47;;;18.20;62.20;;;;;;5094801;28;20044;-56
2024/01/18 10:42:12;;;;;;;9.65;2.45;;;18.20;63.50;;;;;;5084152;28;20037;-55
2024/01/18 10:44:40;;;;;;;8.88;2.40;;;18.30;63.50;;;;;;5096357;28;20028;-55
2024/01/18 10:47:10;;;;;;;19.55;3.55;;;18.30;62.20;;;;;;5096248;28;20389;-56
2024/01/18 10:49:36;;;;;;;18.13;3.40;;;18.30;63.50;;;;;;5095550;28;20036;-56
2024/01/18 10:52:03;;;;;;;11.40;2.15;;;18.40;63.80;;;;;;5095758;28;20032;-56
2024/01/18 10:54:31;;;;;;;22.25;3.78;;;18.40;62.10;;;;;;5096266;28;20024;-56
2024/01/18 10:56:59;;;;;;;9.30;2.35;;;18.40;62.30;;;;;;5095734;28;20375;-55
2024/01/18 10:59:27;;;;;;;13.02;2.83;;;18.50;61.70;;;;;;5095957;28;20062;-56
2024/01/18 11:02:00;;;;;;;14.55;2.40;;;18.50;62.80;;;;;;5095858;28;20040;-56
2024/01/18 11:04:30;;;;;;;14.35;3.25;;;18.60;62.40;;;;;;5095939;28;20028;-56
2024/01/18 11:06:58;;;;;;;15.27;3.53;;;18.60;62.10;;;;;;5095780;28;20032;-56
2024/01/18 11:09:29;;;;;;;12.50;4.05;;;18.80;61.90;;;;;;5095773;28;20106;-55
2024/01/18 11:11:57;;;;;;;8.93;2.60;;;19.00;61.10;;;;;;5096056;28;20124;-55
2024/01/18 11:14:24;;;;;;;10.77;2.75;;;19.20;61.20;;;;;;5095891;28;20192;-55
2024/01/18 11:16:50;;;;;;;11.95;2.80;;;19.50;60.20;;;;;;5094465;28;20028;-55
2024/01/18 11:19:39;;;;;;;15.73;3.63;;;19.80;58.60;;;;;;5095711;28;20028;-55
2024/01/18 11:22:07;;;;;;;12.43;4.35;;;19.70;58.90;;;;;;5092574;28;20126;-55
2024/01/18 11:24:33;;;;;;;12.27;2.55;;;19.60;59.60;;;;;;5094790;28;20465;-55
2024/01/18 11:26:58;;;;;;;13.57;2.78;;;19.60;58.50;;;;;;5095704;28;20035;-55
2024/01/18 11:29:26;;;;;;;18.95;3.92;;;19.60;58.60;;;;;;5095667;28;20036;-55
2024/01/18 11:31:52;;;;;;;14.68;3.42;;;19.90;58.90;;;;;;5094105;28;20447;-55
2024/01/18 11:34:36;;;;;;;18.70;3.65;;;19.70;58.40;;;;;;5092935;28;20024;-55
2024/01/18 11:37:12;;;;;;;18.52;3.30;;;19.60;59.30;;;;;;5091946;28;20028;-55
2024/01/18 11:39:47;;;;;;;25.02;4.75;;;19.70;59.20;;;;;;5095976;28;20081;-56
2024/01/18 11:42:44;;;;;;;20.83;5.43;;;19.60;58.60;;;;;;5095277;28;20055;-55
2024/01/18 11:45:17;;;;;;;9.55;3.00;;;19.70;58.60;;;;;;5093137;28;20122;-55
2024/01/18 11:47:44;;;;;;;22.10;4.70;;;19.70;58.00;;;;;;5093944;28;20024;-55
2024/01/18 11:50:13;;;;;;;22.10;4.63;;;19.90;57.90;;;;;;5094942;28;20417;-55
2024/01/18 11:52:42;;;;;;;18.88;6.03;;;20.00;57.60;;;;;;5094616;28;20040;-55
2024/01/18 11:55:11;;;;;;;22.80;4.88;;;20.10;56.10;;;;;;5095542;28;20053;-56
2024/01/18 11:57:37;;;;;;;13.52;4.43;;;20.10;56.60;;;;;;5095087;28;20031;-55
2024/01/18 12:00:04;;;;;;;11.40;3.17;;;20.20;56.60;;;;;;5093819;28;20028;-55
2024/01/18 12:02:37;;;;;;;18.63;4.60;;;20.20;54.40;;;;;;5091756;28;20056;-55
2024/01/18 12:05:04;;;;;;;15.30;4.50;;;20.40;54.00;;;;;;5092117;28;20089;-55
2024/01/18 12:07:32;;;;;;;10.80;3.15;;;20.40;54.40;;;;;;5095431;28;20032;-55
2024/01/18 12:09:58;;;;;;;10.55;3.70;;;20.50;52.60;;;;;;5095084;28;20079;-55
2024/01/18 12:12:24;;;;;;;15.43;4.45;;;20.80;53.00;;;;;;5094845;28;20024;-56
2024/01/18 12:14:50;;;;;;;14.18;4.00;;;21.60;52.40;;;;;;5093324;28;20040;-56
2024/01/18 12:17:16;;;;;;;10.70;3.47;;;22.00;48.80;;;;;;5094839;28;20040;-56
2024/01/18 12:19:47;;;;;;;15.65;3.28;;;21.90;48.40;;;;;;5095174;28;20028;-56
2024/01/18 12:22:12;;;;;;;;;;;22.10;47.70;;;;;;5094934;28;20089;-55
2024/01/18 12:24:39;;;;;;;18.27;3.58;;;22.20;46.60;;;;;;5094697;28;20258;-56
2024/01/18 12:27:07;;;;;;;10.27;2.83;;;22.50;46.80;;;;;;5095255;28;20070;-56
2024/01/18 12:29:35;;;;;;;25.38;4.78;;;22.40;46.30;;;;;;5094466;28;20020;-55
2024/01/18 12:32:02;;;;;;;28.15;6.00;;;22.30;47.20;;;;;;5095495;28;20107;-56
2024/01/18 12:34:29;;;;;;;18.10;4.28;;;22.20;47.30;;;;;;5095178;28;20045;-56
2024/01/18 12:37:02;;;;;;;10.88;2.90;;;22.10;47.30;;;;;;5093689;28;20077;-56
2024/01/18 12:39:30;;;;;;;8.48;2.50;;;22.00;47.20;;;;;;5093491;28;20017;-56